Time;durP1;ratioP1;P1;durP2;ratioP2;P2;SDS_P1;SDS_P2;PMS_P1;PMS_P2;Temp;Humidity;BMP_temperature;BMP_pressure;BME280_temperature;BME280_humidity;BME280_pressure;Samples;Min_cycle;Max_cycle;Signal;HPM_P1;HPM_P2
2023/01/15 00:01:22;;;;;;;2.50;1.93;;;7.70;99.90;;;;;;5074744;28;20201;-73
2023/01/15 00:03:51;;;;;;;4.10;1.73;;;7.70;99.90;;;;;;5074804;28;20193;-73
2023/01/15 00:06:18;;;;;;;1.70;1.47;;;7.70;99.90;;;;;;5074791;28;20197;-73
2023/01/15 00:08:45;;;;;;;3.43;1.87;;;7.60;99.90;;;;;;5074698;28;20254;-73
2023/01/15 00:11:12;;;;;;;3.23;1.80;;;7.60;99.90;;;;;;5074687;28;20278;-73
2023/01/15 00:13:39;;;;;;;2.20;1.90;;;7.50;99.90;;;;;;5074426;28;20591;-73
2023/01/15 00:16:07;;;;;;;4.70;2.00;;;7.50;99.90;;;;;;5074322;28;20202;-73
2023/01/15 00:18:33;;;;;;;2.20;1.73;;;7.50;99.90;;;;;;5074384;28;20197;-73
2023/01/15 00:21:02;;;;;;;2.53;1.70;;;7.50;99.90;;;;;;5074228;28;20644;-73
2023/01/15 00:28:59;;;;;;;2.53;1.63;;;7.50;99.90;;;;;;5074454;28;20223;-73
2023/01/15 00:31:26;;;;;;;2.63;1.60;;;7.60;99.90;;;;;;5074185;28;20255;-73
2023/01/15 00:33:53;;;;;;;2.73;1.70;;;7.60;99.90;;;;;;5074120;28;20196;-73
2023/01/15 00:36:21;;;;;;;3.50;1.57;;;7.60;99.90;;;;;;5073954;28;20537;-72
2023/01/15 00:38:48;;;;;;;2.97;1.50;;;7.60;99.90;;;;;;5074189;28;20197;-73
2023/01/15 00:41:14;;;;;;;2.83;1.40;;;7.60;99.90;;;;;;5074066;28;20280;-73
2023/01/15 00:43:41;;;;;;;3.10;1.90;;;7.70;99.90;;;;;;5073967;28;20227;-73
2023/01/15 00:46:08;;;;;;;2.57;1.70;;;7.70;99.90;;;;;;5073912;28;20197;-73
2023/01/15 00:48:34;;;;;;;2.20;1.47;;;7.70;99.90;;;;;;5073902;28;20208;-73
2023/01/15 00:51:01;;;;;;;2.33;1.70;;;7.80;99.90;;;;;;5073664;28;20254;-73
2023/01/15 00:53:29;;;;;;;2.00;1.50;;;7.90;99.90;;;;;;5073932;28;20212;-73
2023/01/15 00:55:56;;;;;;;1.47;1.30;;;7.90;99.90;;;;;;5073760;28;20541;-73
2023/01/15 00:58:23;;;;;;;1.23;1.13;;;7.90;99.90;;;;;;5073798;28;20200;-73
2023/01/15 01:00:54;;;;;;;1.77;1.50;;;7.90;99.90;;;;;;5073546;28;20274;-73
2023/01/15 01:03:20;;;;;;;1.50;1.40;;;8.00;99.90;;;;;;5073451;28;20692;-73
2023/01/15 01:05:47;;;;;;;1.67;1.20;;;8.00;99.90;;;;;;5073656;28;20201;-73
2023/01/15 01:08:14;;;;;;;2.20;1.33;;;8.00;99.90;;;;;;5073658;28;20329;-73
2023/01/15 01:10:42;;;;;;;2.10;1.33;;;8.10;99.90;;;;;;5073405;28;20201;-72
2023/01/15 01:13:09;;;;;;;2.20;1.20;;;8.00;99.90;;;;;;5073441;28;20255;-72
2023/01/15 01:15:36;;;;;;;1.50;1.40;;;8.10;99.90;;;;;;5073220;28;20656;-72
2023/01/15 01:18:04;;;;;;;2.20;1.20;;;8.10;99.90;;;;;;5073519;28;20246;-73
2023/01/15 01:20:32;;;;;;;2.13;1.53;;;8.10;99.90;;;;;;5073357;28;20618;-72
2023/01/15 01:22:58;;;;;;;2.90;1.60;;;8.10;99.90;;;;;;5073294;28;20196;-72
2023/01/15 01:25:25;;;;;;;1.97;1.40;;;8.10;99.90;;;;;;5073187;28;20228;-72
2023/01/15 01:27:53;;;;;;;1.50;1.40;;;8.10;99.90;;;;;;5072573;28;20220;-74
2023/01/15 01:30:20;;;;;;;3.83;1.47;;;8.10;99.90;;;;;;5073200;28;20556;-74
2023/01/15 01:32:46;;;;;;;1.53;1.30;;;8.00;99.90;;;;;;5073003;28;20193;-74
2023/01/15 01:35:13;;;;;;;2.27;1.40;;;8.00;99.90;;;;;;5073483;28;20203;-73
2023/01/15 01:37:39;;;;;;;1.73;1.53;;;8.10;99.90;;;;;;5072943;28;20197;-73
2023/01/15 01:40:07;;;;;;;4.90;2.30;;;8.10;99.90;;;;;;5072771;28;20688;-73
2023/01/15 01:42:33;;;;;;;1.50;1.30;;;8.10;99.90;;;;;;5072975;28;20713;-73
2023/01/15 01:45:14;;;;;;;2.70;1.53;;;8.10;99.90;;;;;;5072917;28;20247;-73
2023/01/15 01:47:40;;;;;;;1.67;1.20;;;8.20;99.90;;;;;;5073174;28;20258;-73
2023/01/15 01:50:11;;;;;;;1.53;1.20;;;8.20;99.90;;;;;;5073023;28;20197;-73
2023/01/15 01:52:43;;;;;;;1.30;1.20;;;8.20;99.90;;;;;;5073064;28;20227;-73
2023/01/15 01:55:11;;;;;;;2.00;1.40;;;8.20;99.90;;;;;;5072884;28;20252;-73
2023/01/15 01:57:39;;;;;;;1.20;1.10;;;8.20;99.90;;;;;;5072769;28;20197;-73
2023/01/15 02:00:10;;;;;;;1.43;1.30;;;8.20;99.90;;;;;;5072942;28;20224;-72
2023/01/15 02:02:38;;;;;;;2.93;1.50;;;8.20;99.90;;;;;;5072857;28;20200;-73
2023/01/15 02:05:07;;;;;;;1.73;1.30;;;8.30;99.90;;;;;;5072858;28;20197;-73
2023/01/15 02:07:35;;;;;;;1.30;1.20;;;8.30;99.90;;;;;;5072722;28;20257;-72
2023/01/15 02:10:01;;;;;;;1.80;1.20;;;8.30;99.90;;;;;;5072898;28;20246;-72
2023/01/15 02:12:35;;;;;;;1.27;1.07;;;8.40;99.90;;;;;;5072641;28;20257;-72
2023/01/15 02:15:13;;;;;;;1.40;1.20;;;8.40;99.90;;;;;;5072887;28;20201;-72
2023/01/15 02:17:45;;;;;;;1.50;1.10;;;8.50;99.90;;;;;;5072690;28;20238;-72
2023/01/15 02:20:29;;;;;;;2.80;1.10;;;8.50;99.90;;;;;;5072565;28;20630;-72
2023/01/15 02:23:23;;;;;;;1.50;1.00;;;8.60;99.90;;;;;;5072737;28;20632;-73
2023/01/15 02:26:04;;;;;;;1.33;1.23;;;8.50;99.90;;;;;;5072609;28;20228;-73
2023/01/15 02:28:36;;;;;;;1.40;1.20;;;8.50;99.90;;;;;;5072652;28;20534;-72
2023/01/15 02:31:09;;;;;;;1.10;1.00;;;8.60;99.90;;;;;;5072428;28;20207;-72
2023/01/15 02:33:39;;;;;;;1.50;1.00;;;8.60;99.90;;;;;;5072748;28;20204;-72
2023/01/15 02:36:09;;;;;;;1.07;0.97;;;8.60;99.90;;;;;;5072950;28;20348;-72
2023/01/15 02:38:40;;;;;;;1.83;1.00;;;8.60;99.90;;;;;;5072614;28;20208;-73
2023/01/15 02:41:15;;;;;;;1.20;1.10;;;8.60;99.90;;;;;;5076164;28;20630;-72
2023/01/15 02:43:45;;;;;;;1.10;1.00;;;8.60;99.90;;;;;;5076487;28;20185;-73
2023/01/15 02:46:15;;;;;;;1.47;1.30;;;8.60;99.90;;;;;;5076379;28;20193;-72
2023/01/15 02:48:46;;;;;;;1.33;1.10;;;8.60;99.90;;;;;;5076284;28;20197;-73
2023/01/15 02:51:18;;;;;;;0.80;0.80;;;8.60;99.90;;;;;;5076186;28;20201;-72
2023/01/15 02:53:49;;;;;;;1.20;1.00;;;8.70;99.90;;;;;;5076119;28;20197;-72
2023/01/15 02:56:18;;;;;;;1.10;1.00;;;8.70;99.90;;;;;;5075943;28;20258;-72
2023/01/15 02:58:49;;;;;;;2.37;0.83;;;8.70;99.90;;;;;;5076129;28;20552;-73
2023/01/15 03:01:22;;;;;;;0.80;0.80;;;8.70;99.90;;;;;;5075726;28;20233;-72
2023/01/15 03:03:55;;;;;;;0.97;0.87;;;8.80;99.90;;;;;;5075977;28;20201;-72
2023/01/15 03:06:28;;;;;;;1.00;0.90;;;8.80;99.90;;;;;;5075732;28;20205;-72
2023/01/15 03:08:54;;;;;;;5.23;1.00;;;8.80;99.90;;;;;;5076066;28;20205;-72
2023/01/15 03:11:21;;;;;;;0.80;0.80;;;8.90;99.90;;;;;;5075906;28;20197;-72
2023/01/15 03:13:57;;;;;;;1.57;0.80;;;8.80;99.90;;;;;;5075729;28;20197;-72
2023/01/15 03:16:35;;;;;;;2.40;0.80;;;8.90;99.90;;;;;;5075692;28;20248;-72
2023/01/15 03:19:07;;;;;;;1.00;0.70;;;8.90;99.90;;;;;;5075557;28;20239;-72
2023/01/15 03:21:43;;;;;;;0.93;0.87;;;8.90;99.90;;;;;;5075664;28;20225;-72
2023/01/15 03:24:12;;;;;;;1.10;0.90;;;9.00;99.90;;;;;;5075640;28;20259;-71
2023/01/15 03:26:39;;;;;;;2.43;1.00;;;9.10;99.90;;;;;;5075273;28;20232;-71
2023/01/15 03:29:09;;;;;;;2.83;1.03;;;9.10;99.90;;;;;;5075445;28;20193;-72
2023/01/15 03:31:36;;;;;;;0.80;0.80;;;9.10;99.90;;;;;;5075349;28;20239;-72
2023/01/15 03:34:03;;;;;;;1.00;0.90;;;9.20;99.90;;;;;;5075433;28;20287;-72
2023/01/15 03:36:30;;;;;;;1.23;1.10;;;9.30;99.90;;;;;;5075493;28;20231;-72
2023/01/15 03:38:58;;;;;;;1.10;1.00;;;9.30;99.90;;;;;;5075267;28;20255;-72
2023/01/15 03:41:28;;;;;;;0.93;0.90;;;9.30;99.90;;;;;;5075036;28;20278;-72
2023/01/15 03:44:06;;;;;;;0.80;0.77;;;9.30;99.90;;;;;;5075103;28;20573;-72
2023/01/15 03:46:59;;;;;;;0.87;0.87;;;9.30;99.90;;;;;;5075306;28;20193;-71
2023/01/15 03:49:34;;;;;;;2.07;0.90;;;9.30;99.90;;;;;;5068207;28;20247;-72
2023/01/15 03:52:05;;;;;;;0.70;0.70;;;9.30;99.90;;;;;;5074384;28;20266;-72
2023/01/15 03:54:39;;;;;;;1.10;0.70;;;9.30;99.90;;;;;;5075182;28;20182;-72
2023/01/15 03:57:12;;;;;;;0.97;0.80;;;9.20;99.90;;;;;;5075100;28;20197;-71
2023/01/15 03:59:45;;;;;;;1.00;0.90;;;9.20;99.90;;;;;;5074917;28;20201;-72
2023/01/15 04:02:15;;;;;;;0.80;0.80;;;9.20;99.90;;;;;;5074858;28;20201;-72
2023/01/15 04:04:43;;;;;;;0.87;0.80;;;9.10;99.90;;;;;;5074797;28;20200;-72
2023/01/15 04:07:10;;;;;;;2.43;0.93;;;9.10;99.90;;;;;;5074639;28;20649;-73
2023/01/15 04:09:38;;;;;;;3.33;1.00;;;9.10;99.90;;;;;;5074542;28;20537;-71
2023/01/15 04:12:06;;;;;;;0.97;0.80;;;9.00;99.90;;;;;;5074595;28;20660;-71
2023/01/15 04:14:33;;;;;;;0.83;0.83;;;9.00;99.90;;;;;;5074586;28;20197;-71
2023/01/15 04:17:00;;;;;;;2.30;1.10;;;9.00;99.90;;;;;;5074485;28;20201;-71
2023/01/15 04:19:28;;;;;;;1.30;0.80;;;9.10;99.90;;;;;;5074374;28;20205;-72
2023/01/15 04:21:55;;;;;;;0.90;0.80;;;9.10;99.90;;;;;;5074557;28;20224;-72
2023/01/15 04:24:21;;;;;;;0.90;0.80;;;9.10;99.90;;;;;;5074565;28;20656;-72
2023/01/15 04:26:48;;;;;;;0.70;0.70;;;9.20;99.90;;;;;;5074315;28;20225;-72
2023/01/15 04:29:14;;;;;;;0.70;0.70;;;9.20;99.90;;;;;;5074565;28;20250;-73
2023/01/15 04:31:41;;;;;;;0.60;0.60;;;9.20;99.90;;;;;;5074182;28;20202;-72
2023/01/15 04:34:08;;;;;;;1.37;0.70;;;9.20;99.90;;;;;;5074154;28;20197;-71
2023/01/15 04:36:36;;;;;;;2.20;0.90;;;9.20;99.90;;;;;;5074207;28;20256;-71
2023/01/15 04:39:03;;;;;;;0.87;0.70;;;9.20;99.90;;;;;;5074113;28;20197;-71
2023/01/15 04:44:14;;;;;;;1.10;1.00;;;9.30;99.90;;;;;;5074006;28;20222;-71
2023/01/15 04:46:43;;;;;;;1.37;0.90;;;9.20;99.90;;;;;;5073820;28;20193;-71
2023/01/15 04:49:11;;;;;;;0.87;0.83;;;9.20;99.90;;;;;;5073976;28;20197;-72
2023/01/15 04:51:39;;;;;;;0.93;0.83;;;9.20;99.90;;;;;;5073881;28;20240;-71
2023/01/15 04:54:07;;;;;;;0.90;0.80;;;9.20;99.90;;;;;;5073807;28;20197;-71
2023/01/15 04:56:39;;;;;;;0.93;0.80;;;9.20;99.90;;;;;;5073751;28;20329;-71
2023/01/15 04:59:05;;;;;;;0.93;0.93;;;9.20;99.90;;;;;;5073661;28;20205;-71
2023/01/15 05:01:32;;;;;;;1.30;0.70;;;9.10;99.90;;;;;;5073994;28;20266;-71
2023/01/15 05:04:00;;;;;;;1.87;1.00;;;9.00;99.90;;;;;;5072855;28;20254;-71
2023/01/15 05:06:27;;;;;;;1.10;0.70;;;9.00;99.90;;;;;;5073451;28;20534;-71
2023/01/15 05:08:55;;;;;;;2.80;1.00;;;9.00;99.90;;;;;;5073510;28;20254;-71
2023/01/15 05:11:21;;;;;;;1.07;0.97;;;9.00;99.90;;;;;;5073332;28;20192;-70
2023/01/15 05:13:48;;;;;;;0.70;0.70;;;8.90;99.90;;;;;;5073314;28;20205;-70
2023/01/15 05:16:17;;;;;;;1.23;1.03;;;9.00;99.90;;;;;;5073469;28;20196;-71
2023/01/15 05:18:45;;;;;;;0.93;0.70;;;9.00;99.90;;;;;;5073205;28;20659;-71
2023/01/15 05:21:19;;;;;;;1.80;0.93;;;9.00;99.90;;;;;;5073233;28;20282;-71
2023/01/15 05:23:46;;;;;;;1.03;0.93;;;9.00;99.90;;;;;;5073267;28;20197;-71
2023/01/15 05:26:14;;;;;;;2.93;1.00;;;9.00;99.90;;;;;;5073054;28;20263;-70
2023/01/15 05:28:41;;;;;;;1.07;0.90;;;9.00;99.90;;;;;;5073260;28;20197;-71
2023/01/15 05:31:09;;;;;;;4.10;1.30;;;8.90;99.90;;;;;;5073284;28;20196;-71
2023/01/15 05:33:36;;;;;;;1.00;0.90;;;9.10;99.90;;;;;;5073146;28;20197;-71
2023/01/15 05:36:04;;;;;;;1.27;1.17;;;9.10;99.90;;;;;;5073089;28;20208;-71
2023/01/15 05:38:31;;;;;;;0.70;0.70;;;9.10;99.90;;;;;;5072984;28;20717;-70
2023/01/15 05:40:58;;;;;;;0.87;0.87;;;9.00;99.90;;;;;;5073127;28;20229;-71
2023/01/15 05:43:26;;;;;;;1.00;0.80;;;9.00;99.90;;;;;;5073125;28;20197;-72
2023/01/15 05:45:52;;;;;;;1.10;0.77;;;9.00;99.90;;;;;;5072987;28;20200;-71
2023/01/15 05:48:19;;;;;;;0.93;0.77;;;9.00;99.90;;;;;;5072996;28;20270;-71
2023/01/15 05:50:45;;;;;;;1.00;0.80;;;8.90;99.90;;;;;;5073058;28;20197;-71
2023/01/15 05:53:12;;;;;;;0.80;0.80;;;9.00;99.90;;;;;;5072748;28;20262;-71
2023/01/15 05:55:38;;;;;;;2.00;1.10;;;8.90;99.90;;;;;;5073031;28;20197;-73
2023/01/15 05:58:05;;;;;;;1.23;1.00;;;8.90;99.90;;;;;;5072784;28;20660;-73
2023/01/15 06:00:33;;;;;;;1.10;1.00;;;8.80;99.90;;;;;;5072673;28;20246;-71
2023/01/15 06:03:00;;;;;;;3.33;1.20;;;8.80;99.90;;;;;;5072772;28;20242;-71
2023/01/15 06:05:26;;;;;;;1.10;1.00;;;8.80;99.90;;;;;;5072721;28;20199;-71
2023/01/15 06:07:53;;;;;;;1.37;1.07;;;8.80;99.90;;;;;;5072911;28;20251;-71
2023/01/15 06:10:19;;;;;;;1.83;1.37;;;8.70;99.90;;;;;;5072829;28;20197;-71
2023/01/15 06:12:46;;;;;;;1.90;1.30;;;8.70;99.90;;;;;;5072649;28;20735;-73
2023/01/15 06:15:13;;;;;;;1.20;1.10;;;8.70;99.90;;;;;;5075249;28;20204;-74
2023/01/15 06:17:41;;;;;;;1.10;1.00;;;8.80;99.90;;;;;;5076785;28;20204;-73
2023/01/15 06:20:10;;;;;;;1.20;1.10;;;8.70;99.90;;;;;;5076694;28;20197;-72
2023/01/15 06:22:37;;;;;;;2.10;0.90;;;8.70;99.90;;;;;;5076448;28;20220;-73
2023/01/15 06:25:04;;;;;;;1.63;1.00;;;8.50;99.90;;;;;;5076602;28;20237;-76
2023/01/15 06:27:31;;;;;;;0.50;0.50;;;8.50;99.90;;;;;;5076917;28;20560;-77
2023/01/15 06:29:58;;;;;;;0.50;0.50;;;8.60;99.90;;;;;;5076706;28;20226;-76
2023/01/15 06:32:25;;;;;;;0.60;0.50;;;8.10;99.90;;;;;;5076627;28;20204;-76
2023/01/15 06:34:53;;;;;;;0.53;0.53;;;7.90;99.90;;;;;;5076709;28;20200;-77
2023/01/15 06:37:20;;;;;;;1.43;0.60;;;7.70;99.90;;;;;;5078545;28;20201;-75
2023/01/15 06:39:46;;;;;;;1.37;0.67;;;7.70;99.90;;;;;;5079653;28;20257;-75
2023/01/15 06:47:41;;;;;;;2.83;2.30;;;7.50;99.90;;;;;;5076286;28;20271;-75
2023/01/15 06:50:11;;;;;;;1.67;1.30;;;7.40;99.90;;;;;;5076321;28;20230;-75
2023/01/15 06:52:37;;;;;;;2.20;1.20;;;7.40;99.90;;;;;;5076213;28;20254;-76
2023/01/15 06:55:05;;;;;;;1.20;1.00;;;7.40;99.90;;;;;;5076151;28;20194;-75
2023/01/15 06:57:31;;;;;;;1.00;0.90;;;7.30;99.90;;;;;;5076215;28;20250;-77
2023/01/15 06:59:58;;;;;;;0.60;0.60;;;7.30;99.90;;;;;;5076064;28;20201;-76
2023/01/15 07:02:24;;;;;;;0.70;0.70;;;7.20;99.90;;;;;;5076022;28;20221;-76
2023/01/15 07:04:52;;;;;;;0.70;0.70;;;7.10;99.90;;;;;;5075984;28;20220;-76
2023/01/15 07:07:20;;;;;;;0.70;0.70;;;7.10;99.90;;;;;;5075914;28;20197;-77
2023/01/15 07:09:47;;;;;;;1.10;1.00;;;7.00;99.90;;;;;;5075862;28;20255;-78
2023/01/15 07:12:14;;;;;;;0.60;0.60;;;6.90;99.90;;;;;;5075569;28;20203;-76
2023/01/15 07:14:40;;;;;;;1.10;0.87;;;6.90;99.90;;;;;;5075981;28;20251;-77
2023/01/15 07:17:08;;;;;;;1.10;1.00;;;6.90;99.90;;;;;;5076201;28;20718;-80
2023/01/15 07:19:35;;;;;;;0.90;0.90;;;6.90;99.90;;;;;;5075716;28;20223;-80
2023/01/15 07:22:02;;;;;;;0.93;0.90;;;6.90;99.90;;;;;;5075602;28;20275;-79
2023/01/15 07:24:30;;;;;;;1.20;1.10;;;6.90;99.90;;;;;;5075821;28;20197;-81
2023/01/15 07:26:56;;;;;;;1.00;1.00;;;6.90;99.90;;;;;;5074884;28;20232;-81
2023/01/15 07:29:23;;;;;;;1.20;1.10;;;6.90;99.90;;;;;;5075763;28;20205;-79
2023/01/15 07:31:50;;;;;;;1.10;1.00;;;6.90;99.90;;;;;;5075492;28;20205;-79
2023/01/15 07:34:17;;;;;;;2.67;1.20;;;6.90;99.90;;;;;;5075406;28;20198;-81
2023/01/15 07:36:44;;;;;;;3.23;3.03;;;6.80;99.90;;;;;;5075344;28;20243;-75
2023/01/15 07:39:11;;;;;;;4.60;2.90;;;6.80;99.90;;;;;;5075285;28;20201;-76
2023/01/15 07:50:02;;;;;;;0.90;0.80;;;6.70;99.90;;;;;;5072575;28;20196;-75
2023/01/15 07:52:28;;;;;;;1.23;1.00;;;6.60;99.90;;;;;;5072438;28;20556;-75
2023/01/15 07:54:55;;;;;;;1.57;0.90;;;6.60;99.90;;;;;;5072257;28;20193;-73
2023/01/15 07:57:23;;;;;;;0.90;0.90;;;6.50;99.90;;;;;;5072424;28;20223;-74
2023/01/15 07:59:50;;;;;;;0.80;0.80;;;6.50;99.90;;;;;;5072604;28;20247;-75
2023/01/15 08:02:17;;;;;;;1.80;0.80;;;6.50;99.90;;;;;;5073852;28;20749;-74
2023/01/15 08:04:44;;;;;;;1.30;1.20;;;6.50;99.90;;;;;;5073457;28;20251;-79
2023/01/15 08:07:11;;;;;;;4.63;1.80;;;6.50;99.90;;;;;;5074664;28;20209;-76
2023/01/15 08:09:38;;;;;;;2.77;2.23;;;6.30;99.90;;;;;;5074643;28;20674;-73
2023/01/15 08:17:34;;;;;;;3.10;2.40;;;6.20;99.90;;;;;;5074531;28;20243;-78
2023/01/15 08:20:02;;;;;;;3.00;2.30;;;6.20;99.90;;;;;;5074657;28;20251;-77
2023/01/15 08:22:29;;;;;;;6.33;2.60;;;6.10;99.90;;;;;;5074333;28;20227;-75
2023/01/15 08:24:56;;;;;;;3.57;1.50;;;6.20;99.90;;;;;;5074177;28;20221;-74
2023/01/15 08:27:22;;;;;;;1.63;1.30;;;6.10;99.90;;;;;;5074399;28;20652;-73
2023/01/15 08:29:50;;;;;;;1.27;0.93;;;6.00;99.90;;;;;;5074101;28;20209;-71
2023/01/15 08:32:17;;;;;;;1.20;1.00;;;5.90;99.90;;;;;;5074291;28;20193;-73
2023/01/15 08:34:44;;;;;;;1.40;1.30;;;5.50;99.90;;;;;;5074052;28;20215;-72
2023/01/15 08:37:10;;;;;;;1.40;1.30;;;5.40;99.90;;;;;;5073833;28;20204;-70
2023/01/15 08:39:37;;;;;;;1.60;1.50;;;5.40;99.90;;;;;;5073976;28;20714;-70
2023/01/15 08:42:04;;;;;;;3.27;1.43;;;5.30;99.90;;;;;;5070831;28;20228;-73
2023/01/15 08:44:30;;;;;;;1.50;1.40;;;5.30;99.90;;;;;;5071602;28;20287;-72
2023/01/15 08:46:58;;;;;;;1.37;1.20;;;5.30;99.90;;;;;;5071116;28;20656;-72
2023/01/15 08:49:25;;;;;;;1.37;1.27;;;5.20;99.90;;;;;;5071345;28;20565;-73
2023/01/15 08:51:51;;;;;;;1.30;1.20;;;5.20;99.90;;;;;;5071351;28;20246;-73
2023/01/15 08:54:20;;;;;;;1.67;1.40;;;5.10;99.90;;;;;;5070919;28;20201;-74
2023/01/15 08:56:46;;;;;;;3.60;2.97;;;5.00;99.90;;;;;;5071330;28;20193;-73
2023/01/15 08:59:13;;;;;;;2.77;2.40;;;5.10;99.90;;;;;;5071189;28;20204;-74
2023/01/15 09:01:40;;;;;;;3.33;2.70;;;5.10;99.90;;;;;;5071150;28;20228;-73
2023/01/15 09:04:13;;;;;;;3.13;1.87;;;5.10;99.90;;;;;;5071259;28;20196;-75
2023/01/15 09:06:39;;;;;;;1.40;1.30;;;5.00;99.90;;;;;;5071311;28;20221;-73
2023/01/15 09:09:06;;;;;;;1.73;1.40;;;4.90;99.90;;;;;;5070814;28;20201;-74
2023/01/15 09:11:32;;;;;;;1.73;1.10;;;4.90;99.90;;;;;;5071020;28;20205;-73
2023/01/15 09:13:59;;;;;;;11.03;5.57;;;4.90;99.90;;;;;;5070899;28;20262;-72
2023/01/15 09:16:26;;;;;;;2.00;1.33;;;5.00;99.90;;;;;;5072621;28;20197;-73
2023/01/15 09:18:53;;;;;;;2.87;1.27;;;5.00;99.90;;;;;;5071773;28;20676;-74
2023/01/15 09:21:21;;;;;;;1.83;1.70;;;4.90;99.90;;;;;;5072859;28;20262;-75
2023/01/15 09:23:47;;;;;;;2.10;1.90;;;4.90;99.90;;;;;;5073292;28;20201;-77
2023/01/15 09:26:29;;;;;;;1.70;1.60;;;5.00;99.90;;;;;;5072998;28;20236;-74
2023/01/15 09:28:56;;;;;;;3.23;2.93;;;5.00;99.90;;;;;;5073027;28;20250;-72
2023/01/15 09:31:23;;;;;;;3.33;3.03;;;5.00;99.90;;;;;;5072904;28;20196;-73
2023/01/15 09:33:50;;;;;;;3.47;2.63;;;5.00;99.90;;;;;;5072800;28;20258;-72
2023/01/15 09:36:18;;;;;;;9.63;8.73;;;5.00;99.90;;;;;;5072970;28;20246;-72
2023/01/15 09:38:46;;;;;;;4.33;3.40;;;5.00;99.90;;;;;;5070802;28;20721;-72
2023/01/15 09:44:04;;;;;;;3.20;2.90;;;4.90;99.90;;;;;;5069167;28;20201;-74
2023/01/15 09:46:40;;;;;;;2.67;2.47;;;4.80;99.90;;;;;;5070259;28;20208;-74
2023/01/15 09:49:16;;;;;;;1.63;1.53;;;4.80;99.90;;;;;;5069963;28;20266;-74
2023/01/15 09:51:52;;;;;;;1.57;1.40;;;4.70;99.90;;;;;;5069791;28;20261;-74
2023/01/15 09:54:40;;;;;;;1.50;1.40;;;4.60;99.90;;;;;;5070594;28;20717;-72
2023/01/15 09:57:11;;;;;;;1.40;1.30;;;4.60;99.90;;;;;;5070228;28;20189;-73
2023/01/15 09:59:41;;;;;;;4.53;4.13;;;4.70;99.90;;;;;;5070512;28;20200;-73
2023/01/15 10:02:21;;;;;;;2.20;1.87;;;4.70;99.90;;;;;;5069730;28;20260;-73
2023/01/15 10:04:52;;;;;;;1.73;1.40;;;4.70;99.90;;;;;;5070168;28;20197;-74
2023/01/15 10:07:25;;;;;;;4.87;3.60;;;4.70;99.90;;;;;;5070217;28;20205;-73
2023/01/15 10:09:59;;;;;;;4.70;2.90;;;4.60;99.90;;;;;;5070272;28;20265;-72
2023/01/15 10:12:34;;;;;;;2.67;2.00;;;4.60;99.90;;;;;;5070133;28;20245;-72
2023/01/15 10:15:10;;;;;;;2.47;2.28;;;4.50;99.90;;;;;;5071151;28;20829;-73
2023/01/15 10:17:41;;;;;;;1.20;1.10;;;4.50;99.90;;;;;;5071147;28;20251;-73
2023/01/15 10:20:14;;;;;;;1.80;1.70;;;4.50;99.90;;;;;;5072379;28;20196;-74
2023/01/15 10:23:10;;;;;;;1.90;1.50;;;4.50;99.90;;;;;;5072604;28;20239;-74
2023/01/15 10:25:46;;;;;;;1.50;1.00;;;4.50;99.90;;;;;;5072218;28;20781;-71
2023/01/15 10:28:19;;;;;;;0.80;0.80;;;4.50;99.90;;;;;;5072471;28;20199;-74
2023/01/15 10:30:50;;;;;;;1.23;1.03;;;4.50;99.90;;;;;;5072584;28;20196;-73
2023/01/15 10:33:37;;;;;;;0.80;0.80;;;4.50;99.90;;;;;;5072650;28;20202;-73
2023/01/15 10:36:07;;;;;;;2.87;1.17;;;4.50;99.90;;;;;;5071322;28;20247;-73
2023/01/15 10:38:37;;;;;;;1.20;1.07;;;4.60;99.90;;;;;;5070241;28;20250;-74
2023/01/15 10:41:25;;;;;;;1.80;1.60;;;4.60;99.90;;;;;;5072315;28;20208;-75
2023/01/15 10:43:59;;;;;;;2.63;2.20;;;4.60;99.90;;;;;;5072038;28;20289;-75
2023/01/15 10:46:32;;;;;;;4.90;2.80;;;4.60;99.90;;;;;;5072031;28;20204;-76
2023/01/15 10:49:03;;;;;;;2.17;1.77;;;4.60;99.90;;;;;;5071985;28;20669;-76
2023/01/15 10:51:34;;;;;;;2.73;2.20;;;4.60;99.90;;;;;;5072020;28;20197;-76
2023/01/15 10:54:04;;;;;;;1.60;1.13;;;4.70;99.90;;;;;;5072415;28;20208;-77
2023/01/15 10:56:37;;;;;;;3.57;3.03;;;4.60;99.90;;;;;;5072449;28;20200;-77
2023/01/15 10:59:12;;;;;;;2.00;1.80;;;4.70;99.90;;;;;;5072189;28;20204;-76
2023/01/15 11:01:40;;;;;;;2.20;2.00;;;4.60;99.90;;;;;;5072670;28;20286;-76
2023/01/15 11:04:08;;;;;;;1.67;1.53;;;4.70;99.90;;;;;;5073535;28;20236;-77
2023/01/15 11:06:35;;;;;;;2.00;1.80;;;4.60;99.90;;;;;;5073492;28;20235;-76
2023/01/15 11:09:02;;;;;;;3.50;3.17;;;4.60;99.90;;;;;;5073307;28;20200;-76
2023/01/15 11:19:46;;;;;;;1.30;1.20;;;4.50;99.90;;;;;;5073229;28;20220;-75
2023/01/15 11:22:15;;;;;;;1.90;1.50;;;4.40;99.90;;;;;;5072853;28;20728;-74
2023/01/15 11:24:50;;;;;;;1.57;1.47;;;4.50;99.90;;;;;;5073133;28;20201;-74
2023/01/15 11:27:19;;;;;;;2.57;2.33;;;4.40;99.90;;;;;;5072672;28;20260;-73
2023/01/15 11:29:52;;;;;;;3.30;2.27;;;4.40;99.90;;;;;;5074063;28;20195;-73
2023/01/15 11:32:23;;;;;;;2.57;2.03;;;4.40;99.90;;;;;;5074096;28;20588;-74
2023/01/15 11:34:54;;;;;;;3.70;2.43;;;4.30;99.90;;;;;;5075143;28;20657;-74
2023/01/15 11:37:20;;;;;;;4.00;2.47;;;4.30;99.90;;;;;;5074938;28;20244;-73
2023/01/15 11:39:53;;;;;;;1.90;1.70;;;4.30;99.90;;;;;;5075335;28;20199;-73
2023/01/15 11:50:52;;;;;;;2.87;2.20;;;4.20;99.90;;;;;;5074935;28;20252;-73
2023/01/15 11:53:22;;;;;;;41.77;30.30;;;4.20;99.90;;;;;;5074887;28;20207;-74
2023/01/15 11:55:54;;;;;;;6.07;5.47;;;4.20;99.90;;;;;;5074979;28;20204;-73
2023/01/15 11:58:23;;;;;;;3.07;2.40;;;4.20;99.90;;;;;;5074967;28;20194;-74
2023/01/15 12:00:54;;;;;;;2.60;2.03;;;4.10;99.90;;;;;;5074819;28;20595;-74
2023/01/15 12:03:25;;;;;;;2.00;1.90;;;4.10;99.90;;;;;;5074611;28;20233;-73
2023/01/15 12:05:58;;;;;;;2.90;2.00;;;4.10;99.90;;;;;;5074561;28;20259;-73
2023/01/15 12:08:38;;;;;;;2.93;2.00;;;4.10;99.90;;;;;;5074724;28;20214;-73
2023/01/15 12:11:15;;;;;;;2.50;2.27;;;3.90;99.90;;;;;;5074612;28;20201;-74
2023/01/15 12:13:50;;;;;;;2.07;1.83;;;3.90;99.90;;;;;;5074163;28;20204;-73
2023/01/15 12:16:26;;;;;;;3.60;2.63;;;3.90;99.90;;;;;;5074368;28;20194;-75
2023/01/15 12:18:56;;;;;;;18.53;10.90;;;3.90;99.90;;;;;;5074566;28;20650;-75
2023/01/15 12:21:41;;;;;;;3.77;2.50;;;3.90;99.90;;;;;;5076186;28;20195;-75
2023/01/15 12:24:20;;;;;;;2.00;1.80;;;3.90;99.90;;;;;;5074294;28;20221;-75
2023/01/15 12:27:01;;;;;;;2.60;2.33;;;3.90;99.90;;;;;;5074130;28;20744;-74
2023/01/15 12:29:31;;;;;;;1.40;1.30;;;3.90;99.90;;;;;;5074125;28;20715;-74
2023/01/15 12:32:04;;;;;;;1.60;1.50;;;3.80;99.90;;;;;;5074148;28;20325;-75
2023/01/15 12:34:37;;;;;;;1.67;1.57;;;3.80;99.90;;;;;;5074021;28;20210;-75
2023/01/15 12:37:09;;;;;;;4.53;3.70;;;3.80;99.90;;;;;;5074005;28;20858;-74
2023/01/15 12:39:43;;;;;;;1.93;1.70;;;3.70;99.90;;;;;;5073853;28;20202;-72
2023/01/15 12:45:04;;;;;;;1.43;1.30;;;3.70;99.90;;;;;;5074118;28;20226;-74
2023/01/15 12:47:38;;;;;;;1.73;1.63;;;3.70;99.90;;;;;;5073833;28;20247;-74
2023/01/15 12:50:20;;;;;;;2.60;1.90;;;3.70;99.90;;;;;;5073989;28;20252;-74
2023/01/15 12:52:50;;;;;;;1.70;1.60;;;3.70;99.90;;;;;;5073721;28;20202;-74
2023/01/15 12:55:22;;;;;;;1.40;1.20;;;3.60;99.90;;;;;;5073678;28;20199;-74
2023/01/15 12:57:51;;;;;;;2.37;1.40;;;3.60;99.90;;;;;;5073777;28;20202;-73
2023/01/15 13:00:24;;;;;;;2.07;1.33;;;3.60;99.90;;;;;;5073998;28;20197;-74
2023/01/15 13:03:03;;;;;;;1.60;1.10;;;3.60;99.90;;;;;;5073624;28;20222;-74
2023/01/15 13:05:34;;;;;;;5.07;1.10;;;3.60;99.90;;;;;;5073422;28;20595;-74
2023/01/15 13:08:06;;;;;;;1.53;1.10;;;3.60;99.90;;;;;;5073415;28;20197;-74
2023/01/15 13:10:35;;;;;;;2.23;1.17;;;3.60;99.90;;;;;;5073359;28;20197;-73
2023/01/15 13:13:14;;;;;;;1.23;1.10;;;3.50;99.90;;;;;;5073600;28;20217;-74
2023/01/15 13:15:50;;;;;;;6.57;1.43;;;3.50;99.90;;;;;;5073278;28;20194;-74
2023/01/15 13:18:30;;;;;;;3.43;1.20;;;3.50;99.90;;;;;;5073259;28;20202;-74
2023/01/15 13:21:01;;;;;;;2.27;1.10;;;3.60;99.90;;;;;;5073122;28;20198;-74
2023/01/15 13:23:51;;;;;;;2.47;1.37;;;3.60;99.90;;;;;;5073052;28;20229;-74
2023/01/15 13:26:37;;;;;;;2.60;1.30;;;3.60;99.90;;;;;;5073063;28;20230;-74
2023/01/15 13:29:14;;;;;;;3.40;1.10;;;3.60;99.90;;;;;;5073792;28;20254;-75
2023/01/15 13:31:58;;;;;;;2.13;1.10;;;3.60;99.90;;;;;;5073330;28;20198;-76
2023/01/15 13:34:34;;;;;;;1.53;1.10;;;3.60;99.90;;;;;;5072928;28;20611;-76
2023/01/15 13:37:06;;;;;;;2.57;1.00;;;3.60;99.90;;;;;;5073000;28;20231;-77
2023/01/15 13:39:38;;;;;;;1.83;1.07;;;3.70;99.90;;;;;;5073061;28;20198;-77
2023/01/15 13:44:53;;;;;;;2.53;1.43;;;3.60;99.90;;;;;;5072865;28;20330;-75
2023/01/15 13:47:23;;;;;;;2.97;1.20;;;3.60;99.90;;;;;;5072848;28;20193;-76
2023/01/15 13:49:54;;;;;;;2.90;1.50;;;3.60;99.90;;;;;;5072895;28;20199;-75
2023/01/15 13:52:26;;;;;;;2.60;1.30;;;3.60;99.90;;;;;;5072707;28;20250;-75
2023/01/15 13:54:54;;;;;;;1.83;1.27;;;3.60;99.90;;;;;;5072953;28;20198;-75
2023/01/15 13:57:32;;;;;;;2.03;1.60;;;3.70;99.90;;;;;;5072766;28;20252;-75
2023/01/15 13:59:58;;;;;;;2.57;1.30;;;3.60;99.90;;;;;;5072688;28;20198;-75
2023/01/15 14:02:27;;;;;;;2.27;1.30;;;3.60;99.90;;;;;;5072719;28;20197;-73
2023/01/15 14:04:56;;;;;;;2.20;1.30;;;3.60;99.90;;;;;;5072383;28;20274;-74